Time;durP1;ratioP1;P1;durP2;ratioP2;P2;SDS_P1;SDS_P2;PMS_P1;PMS_P2;Temp;Humidity;BMP_temperature;BMP_pressure;BME280_temperature;BME280_humidity;BME280_pressure;Samples;Min_cycle;Max_cycle;Signal;HPM_P1;HPM_P2
2021/01/26 00:02:11;;;;;;;17.20;1.65;;;3.90;96.30;;;;;;5024756;28;20443;-78
2021/01/26 00:04:37;;;;;;;25.92;1.52;;;3.90;96.20;;;;;;5023855;28;20044;-78
2021/01/26 00:07:03;;;;;;;24.60;2.03;;;3.90;96.20;;;;;;5029880;28;20050;-78
2021/01/26 00:09:29;;;;;;;19.17;1.60;;;3.80;96.10;;;;;;5027529;28;20060;-78
2021/01/26 00:11:55;;;;;;;12.93;1.45;;;3.90;96.10;;;;;;5043179;28;20037;-78
2021/01/26 00:14:21;;;;;;;12.10;0.98;;;3.90;96.10;;;;;;5020631;28;20041;-78
2021/01/26 00:16:47;;;;;;;14.85;1.35;;;3.90;96.10;;;;;;5026995;28;20044;-78
2021/01/26 00:19:13;;;;;;;12.23;1.10;;;3.90;96.00;;;;;;5024372;28;20033;-78
2021/01/26 00:21:39;;;;;;;9.82;1.00;;;3.90;95.90;;;;;;5021526;28;20487;-78
2021/01/26 00:24:05;;;;;;;10.85;1.08;;;4.00;96.00;;;;;;5024312;28;20502;-78
2021/01/26 00:26:31;;;;;;;12.68;1.17;;;4.00;95.90;;;;;;5024454;28;20045;-78
2021/01/26 00:28:57;;;;;;;11.70;2.72;;;4.00;95.80;;;;;;5025146;28;20538;-78
2021/01/26 00:31:23;;;;;;;13.43;1.42;;;4.00;95.80;;;;;;5028126;28;20045;-78
2021/01/26 00:33:49;;;;;;;16.45;1.33;;;4.00;95.80;;;;;;5029814;28;20487;-78
2021/01/26 00:36:14;;;;;;;10.73;1.00;;;4.00;95.80;;;;;;5029763;28;20064;-78
2021/01/26 00:38:40;;;;;;;17.65;0.95;;;4.00;95.80;;;;;;5026033;28;20119;-77
2021/01/26 00:41:05;;;;;;;10.63;1.10;;;4.00;95.80;;;;;;5026663;28;20121;-78
2021/01/26 00:43:31;;;;;;;12.13;1.00;;;4.10;95.80;;;;;;5025841;28;20029;-78
2021/01/26 00:45:57;;;;;;;10.93;1.23;;;4.00;95.70;;;;;;5020568;28;20068;-79
2021/01/26 00:48:23;;;;;;;14.43;0.75;;;4.10;95.70;;;;;;5026933;28;20139;-78
2021/01/26 00:50:49;;;;;;;14.68;1.38;;;4.10;95.70;;;;;;5022691;28;20482;-78
2021/01/26 00:53:15;;;;;;;15.13;1.13;;;4.10;95.70;;;;;;5022100;28;20046;-78
2021/01/26 00:55:41;;;;;;;14.63;1.45;;;4.10;95.60;;;;;;5022932;28;20057;-78
2021/01/26 00:58:06;;;;;;;10.43;0.70;;;4.10;95.60;;;;;;5026059;28;20120;-78
2021/01/26 01:00:35;;;;;;;14.18;0.60;;;4.10;95.60;;;;;;5026935;28;20045;-78
2021/01/26 01:03:03;;;;;;;13.23;1.23;;;4.10;95.60;;;;;;5025883;28;20553;-78
2021/01/26 01:05:29;;;;;;;9.93;0.93;;;4.10;95.50;;;;;;5025876;28;20037;-78
2021/01/26 01:07:55;;;;;;;11.60;0.90;;;4.10;95.50;;;;;;5021045;28;20108;-78
2021/01/26 01:10:24;;;;;;;9.27;0.88;;;4.20;95.50;;;;;;5024817;28;20050;-78
2021/01/26 01:12:50;;;;;;;6.45;0.70;;;4.20;95.50;;;;;;5026643;28;20120;-79
2021/01/26 01:15:17;;;;;;;12.82;0.98;;;4.20;95.50;;;;;;5025641;28;20557;-79
2021/01/26 01:17:43;;;;;;;10.43;0.90;;;4.20;95.50;;;;;;5021790;28;20038;-79
2021/01/26 01:20:10;;;;;;;10.93;1.50;;;4.20;95.40;;;;;;5027286;28;20034;-78
2021/01/26 01:22:36;;;;;;;12.60;1.15;;;4.20;95.30;;;;;;5021499;28;20037;-78
2021/01/26 01:25:04;;;;;;;7.45;0.80;;;4.20;95.40;;;;;;5026553;28;20057;-79
2021/01/26 01:27:30;;;;;;;9.30;1.25;;;4.30;95.30;;;;;;5021745;28;20065;-78
2021/01/26 01:29:55;;;;;;;14.20;1.23;;;4.20;95.20;;;;;;5023553;28;20065;-78
2021/01/26 01:32:21;;;;;;;9.93;0.82;;;4.20;95.10;;;;;;5023245;28;20096;-79
2021/01/26 01:34:47;;;;;;;6.15;0.47;;;4.40;95.00;;;;;;5025854;28;20499;-79
2021/01/26 01:37:13;;;;;;;10.65;0.63;;;4.20;94.80;;;;;;5020506;28;20087;-79
2021/01/26 01:39:38;;;;;;;8.27;0.90;;;4.20;94.80;;;;;;5027080;28;20033;-79
2021/01/26 01:42:09;;;;;;;9.13;0.50;;;4.20;94.80;;;;;;5026529;28;20034;-79
2021/01/26 01:44:36;;;;;;;4.22;0.50;;;4.20;94.80;;;;;;5023617;28;20615;-79
2021/01/26 01:47:04;;;;;;;9.50;0.75;;;4.20;94.70;;;;;;5021120;28;20777;-79
2021/01/26 01:49:37;;;;;;;2.70;0.60;;;4.30;94.50;;;;;;5023317;28;20033;-79
2021/01/26 01:52:04;;;;;;;7.80;0.70;;;4.20;94.30;;;;;;5025374;28;20108;-79
2021/01/26 01:54:36;;;;;;;6.40;1.15;;;4.20;94.10;;;;;;5024147;28;20047;-78
2021/01/26 01:57:08;;;;;;;6.55;1.17;;;4.00;93.80;;;;;;5022770;28;20092;-78
2021/01/26 01:59:45;;;;;;;6.80;1.92;;;3.90;93.80;;;;;;5024602;28;20041;-78
2021/01/26 02:02:12;;;;;;;3.75;0.80;;;3.90;93.90;;;;;;5030183;28;20033;-79
2021/01/26 02:04:38;;;;;;;4.47;1.15;;;3.80;93.90;;;;;;5028860;28;20046;-78
2021/01/26 02:07:05;;;;;;;4.13;1.38;;;3.60;93.50;;;;;;5025353;28;20144;-78
2021/01/26 02:09:38;;;;;;;5.07;1.98;;;3.50;93.50;;;;;;5028622;28;20045;-78
2021/01/26 02:12:06;;;;;;;2.70;1.90;;;3.30;93.60;;;;;;5024469;28;20038;-78
2021/01/26 02:14:47;;;;;;;6.30;2.05;;;3.20;93.60;;;;;;5027429;28;20068;-78
2021/01/26 02:17:32;;;;;;;4.45;2.67;;;3.20;93.70;;;;;;5027332;28;20123;-78
2021/01/26 02:20:35;;;;;;;4.32;2.70;;;3.00;93.90;;;;;;5025037;28;20485;-78
2021/01/26 02:23:39;;;;;;;3.80;3.10;;;2.90;94.10;;;;;;5024724;28;20072;-78
2021/01/26 02:26:43;;;;;;;6.35;3.70;;;2.80;94.10;;;;;;5025024;28;20041;-78
2021/01/26 02:29:14;;;;;;;15.52;4.10;;;2.70;93.90;;;;;;5025698;28;20508;-79
2021/01/26 02:32:15;;;;;;;11.82;5.32;;;2.60;94.10;;;;;;5029653;28;20046;-78
2021/01/26 02:35:03;;;;;;;7.85;4.10;;;2.50;94.20;;;;;;5030695;28;20049;-78
2021/01/26 02:38:06;;;;;;;9.55;5.05;;;2.50;94.40;;;;;;5024779;28;20439;-78
2021/01/26 02:40:51;;;;;;;8.95;5.15;;;2.40;94.50;;;;;;5021859;28;20224;-78
2021/01/26 02:43:35;;;;;;;17.33;6.68;;;2.40;94.60;;;;;;5024297;28;20756;-78
2021/01/26 02:46:27;;;;;;;18.10;5.78;;;2.30;94.60;;;;;;5027928;28;20715;-78
2021/01/26 02:49:20;;;;;;;13.63;5.38;;;2.30;94.70;;;;;;5023774;28;20054;-78
2021/01/26 02:51:55;;;;;;;5.70;5.10;;;2.20;94.80;;;;;;5021888;28;20068;-78
2021/01/26 02:54:29;;;;;;;9.27;5.15;;;2.20;94.90;;;;;;5025577;28;20591;-78
2021/01/26 02:57:05;;;;;;;7.20;5.53;;;2.20;95.00;;;;;;5028865;28;20044;-78
2021/01/26 02:59:46;;;;;;;;;;;2.10;94.90;;;;;;5014745;28;20480;-78
2021/01/26 03:02:36;;;;;;;6.22;5.60;;;2.10;95.00;;;;;;5027050;28;20372;-78
2021/01/26 03:05:03;;;;;;;9.70;6.70;;;2.10;95.20;;;;;;5024563;28;20042;-78
2021/01/26 03:07:33;;;;;;;11.68;6.45;;;2.10;95.30;;;;;;5024025;28;20045;-78
2021/01/26 03:10:10;;;;;;;14.27;7.10;;;2.10;95.30;;;;;;5023692;28;20052;-78
2021/01/26 03:12:41;;;;;;;9.35;6.70;;;2.10;95.30;;;;;;5021024;28;20714;-77
2021/01/26 03:15:20;;;;;;;9.98;7.78;;;2.10;95.30;;;;;;5031140;28;20127;-78
2021/01/26 03:17:49;;;;;;;10.85;7.93;;;2.10;95.20;;;;;;5023145;28;20041;-78
2021/01/26 03:20:29;;;;;;;8.35;6.95;;;2.10;95.30;;;;;;5023306;28;20087;-78
2021/01/26 03:23:01;;;;;;;8.38;6.85;;;2.10;95.20;;;;;;5024187;28;20057;-78
2021/01/26 03:25:28;;;;;;;8.73;6.75;;;2.20;95.30;;;;;;5026778;28;20179;-78
2021/01/26 03:27:58;;;;;;;10.27;7.65;;;2.20;95.30;;;;;;5021907;28;20046;-78
2021/01/26 03:30:28;;;;;;;8.70;7.43;;;2.20;95.20;;;;;;5026935;28;20152;-78
2021/01/26 03:33:00;;;;;;;10.05;8.20;;;2.10;95.30;;;;;;5029472;28;20032;-78
2021/01/26 03:35:27;;;;;;;11.25;8.68;;;2.10;95.20;;;;;;5025656;28;20055;-78
2021/01/26 03:37:58;;;;;;;10.13;7.95;;;2.20;95.20;;;;;;5022363;28;20527;-77
2021/01/26 03:40:24;;;;;;;8.93;7.82;;;2.10;95.30;;;;;;5025115;28;20037;-77
2021/01/26 03:42:50;;;;;;;9.60;7.90;;;2.10;95.30;;;;;;5028714;28;20135;-78
2021/01/26 03:45:16;;;;;;;10.02;8.32;;;2.10;95.20;;;;;;5021842;28;20120;-78
2021/01/26 03:48:08;;;;;;;10.82;7.90;;;2.20;95.30;;;;;;5023294;28;20387;-78
2021/01/26 03:51:00;;;;;;;9.38;8.23;;;2.20;95.30;;;;;;5028078;28;20109;-79
2021/01/26 03:53:58;;;;;;;9.02;7.68;;;2.10;95.20;;;;;;5023731;28;20034;-79
2021/01/26 03:56:51;;;;;;;8.77;7.68;;;2.10;95.20;;;;;;5023049;28;20087;-78
2021/01/26 03:59:22;;;;;;;9.93;7.28;;;2.10;95.30;;;;;;5022292;28;20088;-78
2021/01/26 04:02:08;;;;;;;10.65;6.85;;;2.10;95.30;;;;;;5025982;28;20044;-78
2021/01/26 04:04:59;;;;;;;7.65;6.85;;;2.10;95.20;;;;;;5026630;28;20597;-78
2021/01/26 04:07:32;;;;;;;8.05;7.00;;;2.10;95.10;;;;;;5023755;28;20488;-78
2021/01/26 04:10:04;;;;;;;9.05;7.43;;;2.10;95.10;;;;;;5026415;28;20037;-78
2021/01/26 04:12:33;;;;;;;7.35;6.38;;;2.20;95.10;;;;;;5027694;28;20045;-78
2021/01/26 04:15:03;;;;;;;11.35;7.40;;;2.20;95.10;;;;;;5028063;28;20034;-77
2021/01/26 04:17:33;;;;;;;9.77;6.90;;;2.20;95.10;;;;;;5021266;28;20037;-78
2021/01/26 04:20:09;;;;;;;7.88;5.82;;;2.30;95.10;;;;;;5027382;28;20053;-78
2021/01/26 04:22:35;;;;;;;8.52;6.65;;;2.20;95.10;;;;;;5025821;28;20053;-78
2021/01/26 04:25:20;;;;;;;8.45;6.75;;;2.20;95.10;;;;;;5022911;28;20034;-78
2021/01/26 04:27:45;;;;;;;8.02;6.78;;;2.20;95.10;;;;;;5022643;28;20050;-78
2021/01/26 04:30:12;;;;;;;9.23;6.63;;;2.20;95.00;;;;;;5021842;28;20037;-78
2021/01/26 04:32:38;;;;;;;7.88;6.43;;;2.20;95.00;;;;;;5025319;28;20107;-78
2021/01/26 04:35:04;;;;;;;7.38;6.53;;;2.30;95.00;;;;;;5023500;28;20435;-78
2021/01/26 04:37:30;;;;;;;8.88;7.18;;;2.20;95.00;;;;;;5023146;28;20061;-78
2021/01/26 04:39:56;;;;;;;7.68;6.72;;;2.30;95.10;;;;;;5023652;28;20095;-79
2021/01/26 04:42:26;;;;;;;8.15;6.80;;;2.30;95.10;;;;;;5026744;28;20120;-79
2021/01/26 04:45:13;;;;;;;7.90;6.68;;;2.20;95.10;;;;;;5023819;28;20056;-78
2021/01/26 04:47:50;;;;;;;8.07;6.68;;;2.20;95.00;;;;;;5023784;28;20152;-77
2021/01/26 04:50:23;;;;;;;9.88;6.35;;;2.20;95.00;;;;;;5023534;28;20155;-78
2021/01/26 04:53:03;;;;;;;8.35;6.75;;;2.30;95.00;;;;;;5022475;28;20108;-78
2021/01/26 04:55:42;;;;;;;13.23;6.82;;;2.30;94.90;;;;;;5024195;28;20052;-78
2021/01/26 04:58:45;;;;;;;9.80;5.97;;;2.30;95.00;;;;;;5018838;28;20037;-79
2021/01/26 05:01:23;;;;;;;12.35;6.15;;;2.30;94.90;;;;;;5025610;28;20037;-78
2021/01/26 05:04:15;;;;;;;7.40;6.10;;;2.40;94.80;;;;;;5019630;28;20044;-78
2021/01/26 05:06:51;;;;;;;6.78;6.07;;;2.30;94.80;;;;;;5021265;28;20037;-79
2021/01/26 05:10:03;;;;;;;8.80;5.65;;;2.40;94.70;;;;;;5021630;28;20089;-78
2021/01/26 05:12:41;;;;;;;8.07;6.00;;;2.30;94.50;;;;;;5002092;28;20050;-78
2021/01/26 05:15:10;;;;;;;6.68;6.07;;;2.30;94.30;;;;;;5027816;28;20038;-78
2021/01/26 05:17:43;;;;;;;6.25;5.65;;;2.20;94.20;;;;;;5022037;28;20045;-78
2021/01/26 05:20:17;;;;;;;11.05;5.45;;;2.20;94.40;;;;;;5020794;28;20102;-78
2021/01/26 05:22:43;;;;;;;9.95;6.05;;;2.10;94.50;;;;;;5026023;28;20033;-78
2021/01/26 05:25:11;;;;;;;6.65;5.70;;;2.10;94.60;;;;;;5023737;28;20431;-78
2021/01/26 05:27:38;;;;;;;9.10;5.32;;;2.10;94.70;;;;;;5024146;28;20033;-78
2021/01/26 05:30:11;;;;;;;6.53;5.57;;;2.20;94.80;;;;;;5025352;28;20041;-78
2021/01/26 05:32:37;;;;;;;8.73;5.80;;;2.20;94.90;;;;;;5026441;28;20488;-78
2021/01/26 05:35:04;;;;;;;6.70;6.00;;;2.40;94.90;;;;;;5024560;28;20042;-78
2021/01/26 05:37:32;;;;;;;7.80;6.40;;;2.20;94.80;;;;;;5024217;28;20046;-78
2021/01/26 05:40:07;;;;;;;8.63;5.78;;;2.30;94.70;;;;;;5029953;28;20488;-78
2021/01/26 05:42:34;;;;;;;7.75;5.95;;;2.30;94.60;;;;;;5029805;28;20391;-78
2021/01/26 05:45:06;;;;;;;7.80;6.15;;;2.30;94.70;;;;;;5029546;28;20091;-78
2021/01/26 05:47:34;;;;;;;6.60;5.93;;;2.30;94.60;;;;;;5027533;28;20056;-78
2021/01/26 05:50:00;;;;;;;8.48;5.97;;;2.30;94.60;;;;;;5026757;28;20129;-78
2021/01/26 05:52:35;;;;;;;6.53;5.43;;;2.30;94.70;;;;;;5026748;28;20041;-78
2021/01/26 05:55:03;;;;;;;7.85;6.03;;;2.50;94.70;;;;;;5028355;28;20121;-79
2021/01/26 05:57:34;;;;;;;10.93;6.50;;;2.40;94.70;;;;;;5030832;28;20159;-78
2021/01/26 06:00:26;;;;;;;12.88;6.68;;;2.40;94.80;;;;;;5024046;28;20042;-78
2021/01/26 06:03:18;;;;;;;8.70;6.35;;;2.40;94.80;;;;;;5044720;28;20137;-78
2021/01/26 06:06:10;;;;;;;8.60;6.72;;;2.30;94.80;;;;;;5025554;28;20610;-78
2021/01/26 06:08:54;;;;;;;8.30;5.78;;;2.30;94.90;;;;;;5023684;28;20068;-79
2021/01/26 06:11:28;;;;;;;5.95;5.25;;;2.30;94.90;;;;;;5031277;28;20037;-78
2021/01/26 06:14:11;;;;;;;8.60;5.18;;;2.30;94.80;;;;;;5028006;28;20037;-78
2021/01/26 06:16:37;;;;;;;11.57;6.28;;;2.20;94.70;;;;;;5025341;28;20045;-78
2021/01/26 06:19:04;;;;;;;9.60;6.43;;;2.20;94.60;;;;;;5022112;28;20091;-78
2021/01/26 06:21:43;;;;;;;11.23;6.90;;;2.10;94.60;;;;;;5028868;28;20491;-78
2021/01/26 06:24:17;;;;;;;8.20;6.68;;;2.10;94.60;;;;;;5029813;28;20044;-78
2021/01/26 06:26:50;;;;;;;11.50;6.90;;;2.00;94.70;;;;;;5027090;28;20430;-79
2021/01/26 06:29:34;;;;;;;11.13;6.88;;;2.00;94.80;;;;;;5026377;28;20034;-78
2021/01/26 06:32:14;;;;;;;10.07;6.93;;;2.00;94.90;;;;;;5023278;28;20037;-78
2021/01/26 06:35:12;;;;;;;8.20;6.70;;;2.00;94.90;;;;;;5022799;28;20044;-78
2021/01/26 06:38:06;;;;;;;8.32;6.85;;;2.00;95.00;;;;;;5025505;28;20037;-77
2021/01/26 06:41:09;;;;;;;11.18;7.35;;;2.00;95.10;;;;;;5026937;28;20057;-78
2021/01/26 06:43:48;;;;;;;9.65;7.65;;;2.00;95.10;;;;;;5033644;28;20060;-78
2021/01/26 06:46:51;;;;;;;9.85;7.03;;;2.00;95.20;;;;;;5027035;28;20116;-78
2021/01/26 06:49:51;;;;;;;11.95;7.53;;;2.10;95.20;;;;;;5026058;28;20120;-78
2021/01/26 06:52:34;;;;;;;14.30;8.00;;;2.00;95.30;;;;;;5024701;28;20036;-78
2021/01/26 06:55:43;;;;;;;8.95;6.93;;;2.10;95.30;;;;;;5028163;28;20045;-78
2021/01/26 06:58:27;;;;;;;14.02;8.43;;;2.10;95.30;;;;;;5027943;28;20067;-78
2021/01/26 07:01:29;;;;;;;17.52;7.63;;;2.10;95.40;;;;;;5021582;28;20045;-78
2021/01/26 07:04:21;;;;;;;9.60;7.53;;;2.10;95.40;;;;;;5024416;28;20124;-78
2021/01/26 07:07:22;;;;;;;10.55;6.38;;;2.20;95.40;;;;;;5023142;28;20033;-78
2021/01/26 07:10:00;;;;;;;10.05;7.93;;;2.20;95.40;;;;;;4997973;28;20053;-78
2021/01/26 07:12:31;;;;;;;11.23;7.45;;;2.20;95.60;;;;;;5022257;28;20037;-78
2021/01/26 07:15:21;;;;;;;10.50;7.30;;;2.10;95.30;;;;;;5026413;28;20044;-78
2021/01/26 07:18:04;;;;;;;9.95;7.68;;;2.20;95.40;;;;;;5025413;28;20091;-78
2021/01/26 07:20:43;;;;;;;9.13;6.95;;;2.20;95.40;;;;;;5028632;28;20033;-78
2021/01/26 07:23:46;;;;;;;13.52;7.28;;;2.30;95.30;;;;;;5025873;28;20042;-78
2021/01/26 07:26:40;;;;;;;11.23;7.63;;;2.30;95.30;;;;;;5026342;28;20073;-78
2021/01/26 07:29:43;;;;;;;10.05;6.70;;;2.30;95.30;;;;;;5025151;28;20047;-78
2021/01/26 07:32:26;;;;;;;11.70;7.20;;;2.40;95.30;;;;;;5024627;28;20045;-77
2021/01/26 07:35:26;;;;;;;13.50;7.05;;;2.30;95.30;;;;;;5027999;28;20116;-78
2021/01/26 07:38:00;;;;;;;11.98;7.25;;;2.30;95.30;;;;;;5025369;28;20466;-77
2021/01/26 07:40:37;;;;;;;12.73;8.13;;;2.40;95.30;;;;;;5032352;28;20478;-77
2021/01/26 07:43:21;;;;;;;9.55;7.88;;;2.40;95.60;;;;;;5025129;28;20041;-78
2021/01/26 07:45:58;;;;;;;9.98;7.40;;;2.40;95.30;;;;;;5033268;28;20030;-77
2021/01/26 07:48:33;;;;;;;10.43;7.05;;;2.40;95.30;;;;;;5032760;28;20034;-78
2021/01/26 07:51:04;;;;;;;12.27;8.23;;;2.40;95.30;;;;;;5028398;28;20061;-78
2021/01/26 07:53:47;;;;;;;11.80;8.07;;;2.40;95.30;;;;;;5031108;28;20478;-77
2021/01/26 07:56:38;;;;;;;18.65;9.57;;;2.50;95.40;;;;;;5035064;28;20049;-77
2021/01/26 07:59:36;;;;;;;9.05;7.30;;;2.50;95.30;;;;;;5033821;28;20149;-78
2021/01/26 08:02:12;;;;;;;15.55;8.60;;;2.40;95.30;;;;;;5019531;28;20052;-80
2021/01/26 08:04:40;;;;;;;13.80;7.50;;;2.50;95.20;;;;;;5026206;28;20043;-78
2021/01/26 08:07:06;;;;;;;13.45;8.00;;;2.40;95.10;;;;;;5026567;28;20128;-78
2021/01/26 08:09:47;;;;;;;10.65;7.18;;;2.40;95.00;;;;;;5024696;28;20052;-78
2021/01/26 08:12:16;;;;;;;8.65;7.43;;;2.40;95.00;;;;;;5023609;28;20120;-78
2021/01/26 08:14:47;;;;;;;10.75;7.43;;;2.40;95.00;;;;;;5027467;28;20368;-78
2021/01/26 08:17:16;;;;;;;12.57;7.35;;;2.40;95.00;;;;;;5030174;28;20038;-78
2021/01/26 08:19:44;;;;;;;9.73;7.93;;;2.50;95.10;;;;;;5024287;28;20046;-78
2021/01/26 08:22:34;;;;;;;8.27;6.68;;;2.50;95.00;;;;;;5020419;28;20041;-78
2021/01/26 08:25:08;;;;;;;14.18;7.30;;;2.50;95.00;;;;;;5004608;28;20050;-78
2021/01/26 08:27:39;;;;;;;9.18;7.03;;;2.40;95.00;;;;;;5021978;28;20045;-78
2021/01/26 08:30:13;;;;;;;17.45;7.40;;;2.50;95.00;;;;;;5024116;28;20443;-78
2021/01/26 08:32:40;;;;;;;42.38;8.25;;;2.50;95.00;;;;;;5027862;28;20041;-79
2021/01/26 08:35:08;;;;;;;10.65;6.85;;;2.50;95.00;;;;;;5024390;28;20056;-78
2021/01/26 08:37:43;;;;;;;9.63;6.35;;;2.50;95.00;;;;;;5021592;28;20117;-78
2021/01/26 08:40:17;;;;;;;14.73;6.68;;;2.50;95.00;;;;;;5022929;28;20048;-78
2021/01/26 08:42:43;;;;;;;15.55;6.03;;;2.50;95.00;;;;;;5026655;28;20050;-77
2021/01/26 08:45:27;;;;;;;14.20;6.90;;;2.50;95.10;;;;;;5027191;28;20471;-78
2021/01/26 08:47:52;;;;;;;8.57;6.38;;;2.50;95.00;;;;;;5021419;28;20045;-79
2021/01/26 08:50:27;;;;;;;22.70;6.30;;;2.60;95.10;;;;;;5028474;28;20049;-79
2021/01/26 08:53:26;;;;;;;12.43;5.88;;;2.60;95.10;;;;;;5022391;28;20080;-79
2021/01/26 08:56:03;;;;;;;8.52;5.85;;;2.70;95.00;;;;;;5022335;28;20057;-78
2021/01/26 08:58:43;;;;;;;10.82;6.10;;;2.70;94.90;;;;;;5023659;28;20034;-78
2021/01/26 09:01:22;;;;;;;8.98;5.85;;;2.70;95.00;;;;;;5030047;28;20037;-78
2021/01/26 09:04:16;;;;;;;8.77;5.53;;;2.70;95.10;;;;;;5028494;28;20037;-78
2021/01/26 09:06:43;;;;;;;8.30;5.32;;;2.80;95.20;;;;;;5008082;28;20045;-79
2021/01/26 09:09:34;;;;;;;9.73;5.60;;;2.80;95.20;;;;;;5024501;28;20037;-79
2021/01/26 09:12:04;;;;;;;8.45;6.15;;;2.80;95.30;;;;;;5024439;28;20056;-78
2021/01/26 09:14:45;;;;;;;8.07;5.68;;;2.90;95.30;;;;;;5024490;28;20052;-79
2021/01/26 09:17:21;;;;;;;6.43;5.50;;;3.00;95.30;;;;;;5019779;28;20953;-78
2021/01/26 09:19:56;;;;;;;11.60;5.22;;;3.00;95.30;;;;;;5019521;28;20036;-78
2021/01/26 09:22:29;;;;;;;8.50;5.67;;;3.00;95.20;;;;;;5022216;28;20046;-79
2021/01/26 09:25:00;;;;;;;15.30;5.93;;;3.00;95.10;;;;;;5024120;28;20041;-78
2021/01/26 09:27:33;;;;;;;6.30;4.72;;;3.10;95.20;;;;;;5025201;28;20074;-79
2021/01/26 09:30:14;;;;;;;6.50;4.55;;;3.10;95.20;;;;;;5025103;28;20551;-78
2021/01/26 09:32:42;;;;;;;6.82;5.20;;;3.20;95.10;;;;;;5025983;28;20038;-79
2021/01/26 09:35:24;;;;;;;12.60;5.53;;;3.20;95.10;;;;;;5025266;28;20044;-78
2021/01/26 09:38:19;;;;;;;8.85;5.45;;;3.20;95.00;;;;;;5019105;28;20120;-78
2021/01/26 09:41:23;;;;;;;6.03;4.40;;;3.30;95.00;;;;;;5006935;28;20503;-78
2021/01/26 09:43:52;;;;;;;9.80;5.68;;;3.30;95.00;;;;;;5022697;28;20063;-78
2021/01/26 09:46:21;;;;;;;9.15;5.53;;;3.40;94.90;;;;;;5025873;28;20405;-78
2021/01/26 09:48:50;;;;;;;6.53;5.15;;;3.40;94.90;;;;;;5023247;28;20121;-78
2021/01/26 09:51:26;;;;;;;7.25;5.05;;;3.50;95.00;;;;;;5027291;28;20040;-78
2021/01/26 09:53:58;;;;;;;;;;;3.50;95.00;;;;;;5023524;28;20049;-78
2021/01/26 09:56:25;;;;;;;8.73;4.68;;;3.50;95.00;;;;;;5025335;28;19917;-78
2021/01/26 09:58:54;;;;;;;8.68;4.68;;;3.60;94.90;;;;;;5022124;28;20080;-78
2021/01/26 10:01:21;;;;;;;7.07;5.13;;;3.60;94.90;;;;;;5026113;28;20519;-78
2021/01/26 10:04:06;;;;;;;9.50;5.07;;;3.70;94.90;;;;;;5025520;28;20084;-78
2021/01/26 10:06:33;;;;;;;7.38;4.03;;;3.70;94.80;;;;;;5023236;28;20120;-78
2021/01/26 10:09:33;;;;;;;10.27;4.55;;;3.70;94.70;;;;;;5025076;28;20036;-78
2021/01/26 10:12:22;;;;;;;7.43;4.60;;;3.80;94.80;;;;;;4994848;28;20052;-78
2021/01/26 10:15:06;;;;;;;10.30;4.75;;;3.80;94.70;;;;;;5023486;28;20041;-79
2021/01/26 10:17:32;;;;;;;12.57;4.78;;;3.90;94.70;;;;;;5023786;28;20037;-78
2021/01/26 10:19:58;;;;;;;10.52;5.43;;;4.00;94.70;;;;;;5024332;28;20052;-78
2021/01/26 10:22:25;;;;;;;5.40;4.03;;;4.10;94.90;;;;;;5027920;28;20037;-78
2021/01/26 10:24:51;;;;;;;8.60;4.60;;;4.10;94.40;;;;;;5028822;28;20052;-78
2021/01/26 10:27:22;;;;;;;7.35;4.35;;;4.20;94.50;;;;;;5028566;28;20050;-78
2021/01/26 10:29:49;;;;;;;6.47;4.10;;;4.20;94.20;;;;;;5027064;28;20148;-78
2021/01/26 10:32:38;;;;;;;7.43;3.67;;;4.30;94.20;;;;;;5030943;28;20033;-78
2021/01/26 10:35:05;;;;;;;10.07;4.00;;;4.40;94.10;;;;;;5018812;28;20038;-78
2021/01/26 10:37:33;;;;;;;9.73;4.05;;;4.50;93.70;;;;;;5027264;28;20042;-78
2021/01/26 10:40:15;;;;;;;11.38;3.50;;;4.60;93.50;;;;;;5026600;28;20036;-78
2021/01/26 10:42:56;;;;;;;7.55;3.15;;;4.70;93.40;;;;;;5018766;28;20049;-78
2021/01/26 10:45:40;;;;;;;9.45;3.30;;;4.80;93.00;;;;;;5021334;28;20200;-78
2021/01/26 10:48:10;;;;;;;6.82;2.72;;;5.00;93.30;;;;;;5028888;28;20364;-78
2021/01/26 10:50:37;;;;;;;6.40;2.83;;;5.10;93.10;;;;;;5029208;28;20041;-77
2021/01/26 10:53:02;;;;;;;9.35;2.42;;;5.20;92.70;;;;;;5037153;28;20041;-78
2021/01/26 10:55:28;;;;;;;10.45;2.92;;;5.40;93.00;;;;;;5023721;28;20037;-78
2021/01/26 10:57:54;;;;;;;6.75;2.90;;;5.50;92.70;;;;;;5028967;28;20037;-78
2021/01/26 11:00:23;;;;;;;9.57;2.70;;;5.70;92.70;;;;;;5027971;28;20042;-79
2021/01/26 11:02:50;;;;;;;5.88;2.30;;;5.80;92.30;;;;;;5026818;28;20094;-78
2021/01/26 11:05:16;;;;;;;6.10;1.88;;;5.90;91.90;;;;;;5026254;28;20055;-78
2021/01/26 11:07:42;;;;;;;11.10;2.28;;;6.10;91.60;;;;;;5024788;28;20038;-77
2021/01/26 11:10:09;;;;;;;11.40;2.70;;;6.20;91.80;;;;;;5032524;28;20049;-77
2021/01/26 11:12:36;;;;;;;6.00;1.90;;;6.40;91.40;;;;;;5022353;28;20384;-77
2021/01/26 11:15:09;;;;;;;3.17;1.70;;;6.60;91.20;;;;;;5028140;28;20210;-77
2021/01/26 11:17:34;;;;;;;5.28;1.90;;;6.80;90.80;;;;;;5027774;28;20034;-77
2021/01/26 11:20:00;;;;;;;4.18;2.33;;;7.00;90.70;;;;;;5020279;28;20038;-77
2021/01/26 11:22:26;;;;;;;4.53;1.95;;;7.20;90.50;;;;;;5025178;28;20029;-77
2021/01/26 11:24:52;;;;;;;9.18;1.60;;;7.40;90.40;;;;;;5028001;28;20099;-77
2021/01/26 11:27:18;;;;;;;6.50;1.40;;;7.60;88.50;;;;;;5023394;28;20163;-77
2021/01/26 11:29:44;;;;;;;5.70;1.40;;;7.90;88.30;;;;;;5027008;28;20499;-76
2021/01/26 11:32:10;;;;;;;4.57;2.45;;;8.20;88.40;;;;;;5024442;28;20263;-77
2021/01/26 11:34:36;;;;;;;6.00;1.55;;;8.50;87.40;;;;;;5025813;28;20438;-77
2021/01/26 11:37:02;;;;;;;12.60;1.58;;;8.80;86.70;;;;;;5029212;28;20041;-76
2021/01/26 11:39:27;;;;;;;4.43;1.40;;;8.90;85.80;;;;;;5023354;28;20065;-77
2021/01/26 11:41:53;;;;;;;2.13;0.70;;;9.00;85.30;;;;;;5026861;28;20633;-76
2021/01/26 11:44:20;;;;;;;3.92;1.10;;;9.00;84.20;;;;;;5026209;28;20491;-76
2021/01/26 11:46:46;;;;;;;5.32;0.98;;;8.70;82.70;;;;;;5021773;28;20075;-76
2021/01/26 11:49:11;;;;;;;3.83;0.80;;;8.50;82.90;;;;;;5025346;28;20033;-76
2021/01/26 11:51:37;;;;;;;6.28;0.75;;;8.30;82.70;;;;;;5027453;28;20041;-76
2021/01/26 11:54:03;;;;;;;6.75;0.90;;;8.00;82.70;;;;;;5028425;28;20519;-76
2021/01/26 11:56:29;;;;;;;3.50;0.80;;;7.90;83.60;;;;;;5026715;28;20037;-76
2021/01/26 11:58:54;;;;;;;8.63;0.90;;;7.80;84.70;;;;;;5021500;28;20038;-76
2021/01/26 12:01:20;;;;;;;3.47;0.95;;;7.70;84.00;;;;;;5023880;28;20104;-76
2021/01/26 12:03:46;;;;;;;4.53;1.05;;;7.70;84.60;;;;;;5039061;28;20040;-76
2021/01/26 12:06:12;;;;;;;6.53;1.20;;;7.70;85.10;;;;;;5026954;28;20052;-76
2021/01/26 12:08:38;;;;;;;4.45;1.80;;;7.80;85.40;;;;;;5025694;28;20038;-76
2021/01/26 12:11:05;;;;;;;2.92;1.05;;;7.90;84.70;;;;;;5029508;28;20034;-76
2021/01/26 12:13:31;;;;;;;4.53;0.93;;;7.90;84.80;;;;;;5029302;28;20080;-76
2021/01/26 12:15:57;;;;;;;8.00;0.85;;;7.90;84.30;;;;;;5021369;28;20041;-75
2021/01/26 12:18:23;;;;;;;3.45;0.50;;;7.90;83.80;;;;;;5025521;28;20042;-76
2021/01/26 12:20:49;;;;;;;7.93;0.80;;;7.90;83.30;;;;;;5025078;28;20124;-75
2021/01/26 12:23:15;;;;;;;6.13;0.50;;;7.90;82.50;;;;;;5024638;28;20041;-76
2021/01/26 12:25:41;;;;;;;3.55;0.50;;;8.00;82.20;;;;;;5025713;28;20092;-76
2021/01/26 12:28:09;;;;;;;5.32;0.60;;;8.00;83.10;;;;;;5022282;28;20163;-76
2021/01/26 12:30:35;;;;;;;8.80;1.05;;;8.10;82.50;;;;;;5025417;28;20063;-76
2021/01/26 12:33:03;;;;;;;5.18;0.50;;;8.10;80.60;;;;;;5024386;28;20484;-76
2021/01/26 12:35:36;;;;;;;4.20;0.60;;;8.10;80.40;;;;;;5024653;28;20136;-76
2021/01/26 12:38:04;;;;;;;3.22;0.40;;;8.00;80.10;;;;;;5029593;28;20041;-76
2021/01/26 12:40:29;;;;;;;4.20;0.70;;;7.90;81.80;;;;;;5027682;28;20088;-76
2021/01/26 12:42:55;;;;;;;2.88;0.70;;;7.80;81.70;;;;;;5021521;28;20042;-76
2021/01/26 12:45:25;;;;;;;6.03;0.50;;;7.70;81.70;;;;;;5023777;28;20128;-76
2021/01/26 12:47:51;;;;;;;2.88;0.35;;;7.60;82.00;;;;;;5023226;28;20053;-75
2021/01/26 12:50:20;;;;;;;4.20;0.57;;;7.60;82.10;;;;;;5026082;28;20033;-76
2021/01/26 12:52:46;;;;;;;3.90;0.50;;;7.40;81.60;;;;;;5025044;28;20033;-75
2021/01/26 12:55:12;;;;;;;2.72;0.28;;;7.40;80.70;;;;;;5026442;28;20410;-76
2021/01/26 12:57:38;;;;;;;5.50;0.40;;;7.30;81.70;;;;;;5017677;28;20113;-75
2021/01/26 13:00:10;;;;;;;3.97;0.20;;;7.20;82.50;;;;;;5026895;28;20037;-76
2021/01/26 13:02:35;;;;;;;8.77;0.82;;;7.20;82.60;;;;;;5021092;28;20046;-76
2021/01/26 13:05:01;;;;;;;5.03;0.65;;;7.10;82.70;;;;;;5022672;28;20626;-75
2021/01/26 13:07:27;;;;;;;8.45;0.93;;;7.10;82.90;;;;;;5025021;28;20040;-76
2021/01/26 13:09:52;;;;;;;3.40;0.60;;;7.20;82.90;;;;;;5027823;28;20369;-75
2021/01/26 13:12:18;;;;;;;5.10;0.90;;;7.20;83.60;;;;;;5024082;28;20041;-76
2021/01/26 13:14:45;;;;;;;4.72;0.50;;;7.30;83.90;;;;;;5025502;28;20057;-76
2021/01/26 13:17:13;;;;;;;4.63;0.82;;;7.20;84.30;;;;;;5025472;28;20107;-75
2021/01/26 13:19:39;;;;;;;5.53;1.08;;;7.20;84.70;;;;;;5023508;28;20072;-76
2021/01/26 13:22:05;;;;;;;7.35;0.70;;;7.20;84.80;;;;;;5027086;28;20533;-75
2021/01/26 13:24:31;;;;;;;4.70;0.73;;;7.20;84.30;;;;;;5025108;28;20041;-75
2021/01/26 13:26:57;;;;;;;7.68;1.05;;;7.20;83.50;;;;;;5020212;28;20132;-76
2021/01/26 13:29:23;;;;;;;8.52;1.13;;;7.20;84.50;;;;;;5023046;28;20048;-75